createdAt,value
2019-03-28T00:00:23.082Z,68.50
2019-03-28T00:02:53.586Z,68.90
2019-03-28T00:05:22.464Z,69.20
2019-03-28T00:07:51.324Z,69.70
2019-03-28T00:10:20.195Z,69.30
2019-03-28T00:12:49.131Z,69.20
2019-03-28T00:15:17.984Z,69.40
2019-03-28T00:17:46.838Z,69.80
2019-03-28T00:20:16.479Z,69.70
2019-03-28T00:22:49.632Z,70.00
2019-03-28T00:25:20.084Z,71.30
2019-03-28T00:27:48.955Z,71.40
2019-03-28T00:30:19.183Z,71.70
2019-03-28T00:32:48.147Z,72.40
2019-03-28T00:35:17.143Z,73.00
2019-03-28T00:37:46.135Z,73.60
2019-03-28T00:40:15.077Z,73.80
2019-03-28T00:42:44.094Z,74.30
2019-03-28T00:45:13.809Z,74.80
2019-03-28T00:47:42.731Z,75.20
2019-03-28T00:50:13.580Z,75.30
2019-03-28T00:52:42.438Z,75.40
2019-03-28T00:55:12.492Z,75.80
2019-03-28T00:57:41.469Z,75.80
2019-03-28T01:00:11.079Z,75.90
2019-03-28T01:02:40.129Z,76.10
2019-03-28T01:05:09.337Z,76.20
2019-03-28T01:07:38.186Z,76.30
2019-03-28T01:10:07.501Z,76.30
2019-03-28T01:12:36.343Z,76.30
2019-03-28T01:15:07.197Z,76.30
2019-03-28T01:17:36.126Z,76.50
2019-03-28T01:20:06.765Z,76.70
2019-03-28T01:22:35.607Z,77.10
2019-03-28T01:25:05.003Z,77.80
2019-03-28T01:27:33.840Z,78.40
2019-03-28T01:30:02.683Z,78.30
2019-03-28T01:32:31.571Z,78.30
2019-03-28T01:35:00.401Z,78.50
2019-03-28T01:37:29.306Z,78.60
2019-03-28T01:39:58.450Z,78.60
2019-03-28T01:42:27.301Z,78.90
2019-03-28T01:44:56.141Z,79.20
2019-03-28T01:47:25.048Z,79.10
2019-03-28T01:49:53.939Z,79.80
2019-03-28T01:52:22.781Z,80.00
2019-03-28T01:54:51.671Z,79.60
2019-03-28T01:57:20.519Z,79.60
2019-03-28T01:59:49.362Z,79.70
2019-03-28T02:02:18.272Z,79.70
2019-03-28T02:04:47.121Z,79.70
2019-03-28T02:07:15.963Z,80.00
2019-03-28T02:09:44.872Z,79.90
2019-03-28T02:12:13.710Z,80.20
2019-03-28T02:14:42.551Z,80.50
2019-03-28T02:17:12.098Z,80.50
2019-03-28T02:19:41.093Z,81.00
2019-03-28T02:22:09.944Z,80.90
2019-03-28T02:24:38.877Z,80.70
2019-03-28T02:27:07.729Z,80.70
2019-03-28T02:29:36.568Z,80.70
2019-03-28T02:32:05.457Z,80.50
2019-03-28T02:34:34.289Z,80.50
2019-03-28T02:37:03.173Z,80.50
2019-03-28T02:39:32.036Z,80.60
2019-03-28T02:42:01.622Z,81.00
2019-03-28T02:44:30.776Z,81.40
2019-03-28T02:46:59.697Z,81.20
2019-03-28T02:49:28.558Z,81.00
2019-03-28T02:51:57.409Z,80.80
2019-03-28T02:54:26.326Z,80.70
2019-03-28T02:56:55.188Z,80.20
2019-03-28T02:59:24.050Z,80.20
2019-03-28T03:01:52.955Z,80.10
2019-03-28T03:04:21.809Z,80.30
2019-03-28T03:06:50.655Z,80.60
2019-03-28T03:09:19.542Z,80.80
2019-03-28T03:11:48.416Z,81.00
2019-03-28T03:14:17.290Z,81.40
2019-03-28T03:16:46.308Z,81.40
2019-03-28T03:19:15.154Z,81.40
2019-03-28T03:21:44.010Z,81.50
2019-03-28T03:24:12.893Z,81.50
2019-03-28T03:26:41.741Z,81.40
2019-03-28T03:29:10.716Z,81.10
2019-03-28T03:31:39.670Z,80.80
2019-03-28T03:34:08.481Z,80.60
2019-03-28T03:36:37.334Z,80.90
2019-03-28T03:39:07.721Z,81.20
2019-03-28T03:41:36.577Z,81.30
2019-03-28T03:44:05.422Z,81.70
2019-03-28T03:46:34.338Z,82.00
2019-03-28T03:49:03.219Z,81.90
2019-03-28T03:51:32.098Z,82.10
2019-03-28T03:54:01.026Z,81.80
2019-03-28T03:56:29.864Z,81.60
2019-03-28T03:58:58.742Z,81.60
2019-03-28T04:01:27.634Z,81.50
2019-03-28T04:03:56.488Z,81.30
2019-03-28T04:06:25.357Z,80.90
2019-03-28T04:08:54.240Z,80.70
2019-03-28T04:11:23.095Z,80.40
2019-03-28T04:13:51.976Z,80.40
2019-03-28T04:16:20.954Z,80.70
2019-03-28T04:18:49.810Z,80.50
2019-03-28T04:21:18.673Z,80.70
2019-03-28T04:23:47.574Z,80.50
2019-03-28T04:26:16.424Z,80.60
2019-03-28T04:28:45.310Z,80.40
2019-03-28T04:41:32.115Z,81.40
2019-03-28T04:44:00.972Z,82.10
2019-03-28T04:46:29.828Z,82.60
2019-03-28T04:48:58.741Z,82.80
2019-03-28T04:51:27.662Z,82.40
2019-03-28T04:53:56.596Z,82.20
2019-03-28T04:56:25.531Z,82.10
2019-03-28T04:58:54.388Z,81.80
2019-03-28T05:01:23.246Z,81.70
2019-03-28T05:03:52.247Z,81.40
2019-03-28T05:06:21.092Z,81.20
2019-03-28T05:08:49.940Z,81.10
2019-03-28T05:11:19.455Z,80.80
2019-03-28T05:13:48.342Z,80.90
2019-03-28T05:16:17.195Z,80.80
2019-03-28T05:18:46.101Z,80.50
2019-03-28T05:21:14.920Z,80.60
2019-03-28T05:23:43.798Z,80.60
2019-03-28T05:26:12.728Z,80.60
2019-03-28T05:28:41.600Z,80.90
2019-03-28T05:31:10.458Z,80.50
2019-03-28T05:33:39.362Z,80.10
2019-03-28T05:36:08.228Z,79.30
2019-03-28T05:38:37.099Z,78.50
2019-03-28T05:41:06.086Z,78.40
2019-03-28T05:43:34.959Z,78.30
2019-03-28T05:46:03.812Z,78.40
2019-03-28T05:48:32.758Z,78.50
2019-03-28T05:51:01.647Z,78.30
2019-03-28T05:53:30.482Z,77.80
2019-03-28T05:55:59.376Z,76.70
2019-03-28T05:58:28.233Z,77.00
2019-03-28T06:00:57.094Z,76.70
2019-03-28T06:03:25.944Z,76.80
2019-03-28T06:05:55.698Z,76.30
2019-03-28T06:08:24.561Z,76.40
2019-03-28T06:10:53.516Z,75.10
2019-03-28T06:13:22.368Z,74.70
2019-03-28T06:15:51.202Z,74.60
2019-03-28T06:18:20.367Z,73.60
2019-03-28T06:20:49.451Z,73.30
2019-03-28T06:23:18.321Z,73.20
2019-03-28T06:25:47.491Z,72.90
2019-03-28T06:28:16.334Z,72.30
2019-03-28T06:30:45.197Z,71.50
2019-03-28T06:33:14.138Z,70.20
2019-03-28T06:35:43.079Z,69.40
2019-03-28T06:38:11.922Z,69.50
2019-03-28T06:40:40.822Z,68.90
2019-03-28T06:43:09.663Z,69.40
2019-03-28T06:45:38.531Z,68.10
2019-03-28T06:48:07.484Z,61.50
2019-03-28T06:50:36.331Z,58.20
2019-03-28T06:53:05.193Z,58.50
2019-03-28T06:55:36.775Z,58.90
2019-03-28T06:58:04.613Z,52.00
2019-03-28T07:00:33.685Z,44.90
2019-03-28T07:03:02.607Z,39.50
2019-03-28T07:05:31.467Z,36.70
2019-03-28T07:08:00.318Z,33.30
2019-03-28T07:10:29.210Z,32.00
2019-03-28T07:12:58.066Z,30.70
2019-03-28T07:15:26.935Z,30.00
2019-03-28T07:17:55.851Z,30.00
2019-03-28T07:20:24.714Z,30.00
2019-03-28T07:22:53.582Z,30.00
2019-03-28T07:25:25.404Z,30.00
2019-03-28T07:27:53.011Z,31.00
2019-03-28T07:30:21.982Z,30.50
2019-03-28T07:32:50.900Z,30.00
2019-03-28T07:35:19.771Z,30.00
2019-03-28T07:37:48.612Z,30.00
2019-03-28T07:40:17.838Z,30.00
2019-03-28T07:42:46.689Z,29.90
2019-03-28T07:45:15.760Z,28.80
2019-03-28T07:47:44.775Z,27.80
2019-03-28T07:50:13.739Z,28.80
2019-03-28T07:52:42.599Z,26.50
2019-03-28T07:55:11.600Z,27.90
2019-03-28T07:57:41.399Z,28.20
2019-03-28T08:00:12.122Z,26.70
2019-03-28T08:02:41.051Z,26.80
2019-03-28T08:05:11.628Z,26.90
2019-03-28T08:07:45.492Z,27.00
2019-03-28T08:10:12.040Z,26.00
2019-03-28T08:12:40.897Z,24.90
2019-03-28T08:15:10.587Z,24.80
2019-03-28T08:17:39.465Z,24.20
2019-03-28T08:20:10.530Z,24.80
2019-03-28T08:22:39.390Z,24.20
2019-03-28T08:25:11.700Z,23.90
2019-03-28T08:27:39.420Z,23.60
2019-03-28T08:30:18.309Z,23.50
2019-03-28T08:32:40.526Z,23.10
2019-03-28T08:35:10.455Z,23.30
2019-03-28T08:37:40.209Z,23.10
2019-03-28T08:40:11.737Z,23.50
2019-03-28T08:42:40.559Z,23.40
2019-03-28T08:45:09.722Z,23.10
2019-03-28T08:47:38.623Z,22.70
2019-03-28T08:50:08.296Z,22.40
2019-03-28T08:52:37.170Z,22.30
2019-03-28T08:55:10.362Z,21.80
2019-03-28T08:57:39.337Z,21.10
2019-03-28T09:00:10.297Z,21.60
2019-03-28T09:02:39.232Z,21.60
2019-03-28T09:05:08.100Z,21.10
2019-03-28T09:07:36.971Z,21.60
2019-03-28T09:10:10.459Z,21.20
2019-03-28T09:12:39.308Z,20.50
2019-03-28T09:15:08.663Z,20.70
2019-03-28T09:17:37.563Z,20.50
2019-03-28T09:20:08.020Z,21.20
2019-03-28T09:22:39.009Z,21.10
2019-03-28T09:25:07.949Z,20.90
2019-03-28T09:27:36.798Z,20.90
2019-03-28T09:30:08.005Z,20.90
2019-03-28T09:32:37.408Z,21.10
2019-03-28T09:35:08.142Z,21.10
2019-03-28T09:37:36.991Z,21.50
2019-03-28T09:40:06.285Z,21.80
2019-03-28T09:42:35.144Z,21.80
2019-03-28T09:45:06.470Z,21.60
2019-03-28T09:47:35.393Z,21.40
2019-03-28T09:50:06.341Z,21.50
2019-03-28T09:52:35.198Z,21.40
2019-03-28T09:55:05.004Z,20.90
2019-03-28T09:57:33.862Z,20.90
2019-03-28T10:00:02.699Z,20.60
2019-03-28T10:02:31.608Z,21.00
2019-03-28T10:05:00.569Z,21.30
2019-03-28T10:07:29.405Z,21.70
2019-03-28T10:09:58.476Z,22.00
2019-03-28T10:12:27.391Z,22.00
2019-03-28T10:14:56.231Z,21.90
2019-03-28T10:17:25.115Z,22.10
2019-03-28T10:19:53.990Z,21.50
2019-03-28T10:22:22.833Z,22.00
2019-03-28T10:24:51.735Z,23.60
2019-03-28T10:27:20.598Z,24.90
2019-03-28T10:29:49.445Z,25.70
2019-03-28T10:32:18.363Z,26.10
2019-03-28T10:34:47.221Z,26.60
2019-03-28T10:37:16.077Z,26.70
2019-03-28T10:39:44.960Z,26.80
2019-03-28T10:42:13.815Z,27.00
2019-03-28T10:44:42.687Z,27.40
2019-03-28T10:47:11.603Z,27.60
2019-03-28T10:49:41.466Z,27.30
2019-03-28T10:52:11.903Z,27.10
2019-03-28T10:54:41.110Z,27.00
2019-03-28T10:57:15.375Z,27.80
2019-03-28T10:59:40.476Z,27.50
2019-03-28T11:02:09.381Z,27.80
2019-03-28T11:04:38.226Z,27.20
2019-03-28T11:07:07.067Z,27.40
2019-03-28T11:09:35.938Z,27.60
2019-03-28T11:12:04.794Z,27.70
2019-03-28T11:14:33.641Z,27.20
2019-03-28T11:17:02.571Z,26.70
2019-03-28T11:19:31.420Z,26.70
2019-03-28T11:22:00.282Z,26.80
2019-03-28T11:24:29.168Z,26.80
2019-03-28T11:26:58.017Z,27.50
2019-03-28T11:29:26.861Z,27.90
2019-03-28T11:31:55.743Z,27.60
2019-03-28T11:34:24.593Z,28.10
2019-03-28T11:36:53.448Z,27.70
2019-03-28T11:39:22.356Z,27.40
2019-03-28T11:41:51.216Z,27.70
2019-03-28T11:44:20.064Z,27.80
2019-03-28T11:46:49.342Z,27.70
2019-03-28T11:49:18.179Z,27.60
2019-03-28T11:51:47.017Z,28.10
2019-03-28T11:54:15.916Z,28.80
2019-03-28T11:56:44.847Z,29.00
2019-03-28T11:59:13.654Z,28.80
2019-03-28T12:01:42.599Z,28.70
2019-03-28T12:04:11.451Z,29.00
2019-03-28T12:06:40.299Z,28.80
2019-03-28T12:09:09.204Z,28.10
2019-03-28T12:11:38.301Z,28.50
2019-03-28T12:14:07.132Z,28.70
2019-03-28T12:16:36.024Z,28.80
2019-03-28T12:19:04.889Z,28.70
2019-03-28T12:21:33.719Z,28.60
2019-03-28T12:24:02.644Z,28.00
2019-03-28T12:26:31.479Z,27.60
2019-03-28T12:29:00.354Z,28.40
2019-03-28T12:31:29.258Z,28.20
2019-03-28T12:33:58.082Z,28.30
2019-03-28T12:36:26.944Z,28.00
2019-03-28T12:38:55.845Z,27.90
2019-03-28T12:41:24.682Z,28.10
2019-03-28T12:43:53.548Z,28.30
2019-03-28T12:46:25.462Z,28.30
2019-03-28T12:48:52.985Z,28.10
2019-03-28T12:51:22.303Z,27.80
2019-03-28T12:53:51.417Z,27.90
2019-03-28T12:56:20.284Z,28.20
2019-03-28T12:58:49.136Z,27.90
2019-03-28T13:01:18.056Z,27.40
2019-03-28T13:03:46.887Z,27.90
2019-03-28T13:06:15.794Z,27.80
2019-03-28T13:08:44.720Z,28.30
2019-03-28T13:11:13.562Z,28.00
2019-03-28T13:13:42.400Z,28.30
2019-03-28T13:16:11.304Z,28.70
2019-03-28T13:18:40.156Z,28.50
2019-03-28T13:21:13.589Z,28.60
2019-03-28T13:23:40.362Z,27.40
2019-03-28T13:26:09.207Z,27.00
2019-03-28T13:28:38.067Z,26.70
2019-03-28T13:31:06.962Z,27.10
2019-03-28T13:33:35.823Z,27.00
2019-03-28T13:36:04.663Z,26.80
2019-03-28T13:38:33.553Z,26.10
2019-03-28T13:41:02.429Z,26.10
2019-03-28T13:43:31.301Z,26.30
2019-03-28T13:46:00.183Z,26.30
2019-03-28T13:48:29.040Z,26.60
2019-03-28T13:50:57.875Z,27.10
2019-03-28T13:53:38.796Z,27.20
2019-03-28T13:55:58.311Z,27.60
2019-03-28T13:58:27.143Z,27.50
2019-03-28T14:00:56.433Z,27.70
2019-03-28T14:03:25.457Z,27.80
2019-03-28T14:05:54.267Z,28.10
2019-03-28T14:08:23.158Z,27.10
2019-03-28T14:10:51.985Z,26.60
2019-03-28T14:13:21.538Z,25.70
2019-03-28T14:15:50.861Z,25.60
2019-03-28T14:18:19.724Z,26.00
2019-03-28T14:20:48.568Z,25.90
2019-03-28T14:23:18.524Z,26.00
2019-03-28T14:25:47.537Z,26.30
2019-03-28T14:28:16.403Z,26.40
2019-03-28T14:30:45.281Z,25.80
2019-03-28T14:33:15.943Z,25.50
2019-03-28T14:35:44.632Z,25.70
2019-03-28T14:38:13.562Z,25.60
2019-03-28T14:40:42.396Z,25.80
2019-03-28T14:43:11.259Z,25.40
2019-03-28T14:45:40.276Z,25.40
2019-03-28T14:48:09.073Z,25.50
2019-03-28T14:50:39.650Z,25.70
2019-03-28T14:53:08.489Z,25.90
2019-03-28T14:55:37.426Z,25.90
2019-03-28T14:58:07.139Z,26.10
2019-03-28T15:00:46.757Z,26.00
2019-03-28T15:03:25.863Z,25.80
2019-03-28T15:05:45.890Z,26.30
2019-03-28T15:08:14.794Z,26.60
2019-03-28T15:10:43.642Z,26.70
2019-03-28T15:13:12.596Z,27.00
2019-03-28T15:15:41.891Z,27.00
2019-03-28T15:18:10.753Z,27.20
2019-03-28T15:20:39.571Z,27.20
2019-03-28T15:23:08.487Z,27.20
2019-03-28T15:25:38.208Z,27.90
2019-03-28T15:28:07.051Z,28.30
2019-03-28T15:30:35.924Z,28.70
2019-03-28T15:33:04.773Z,28.90
2019-03-28T15:35:33.603Z,29.20
2019-03-28T15:38:02.496Z,29.30
2019-03-28T15:40:31.362Z,29.30
2019-03-28T15:43:00.185Z,29.10
2019-03-28T15:45:29.094Z,29.00
2019-03-28T15:47:57.929Z,29.50
2019-03-28T15:50:26.768Z,28.80
2019-03-28T15:52:55.750Z,29.10
2019-03-28T15:55:24.600Z,29.00
2019-03-28T15:57:53.526Z,29.70
2019-03-28T16:00:22.456Z,29.20
2019-03-28T16:02:51.297Z,29.50
2019-03-28T16:05:20.139Z,29.40
2019-03-28T16:07:49.049Z,29.50
2019-03-28T16:10:18.105Z,29.70
2019-03-28T16:12:46.928Z,30.40
2019-03-28T16:15:15.824Z,29.80
2019-03-28T16:17:44.673Z,29.50
2019-03-28T16:20:13.922Z,29.50
2019-03-28T16:22:42.798Z,29.80
2019-03-28T16:25:11.764Z,29.60
2019-03-28T16:27:40.705Z,29.70
2019-03-28T16:30:12.381Z,29.80
2019-03-28T16:32:41.229Z,29.40
2019-03-28T16:35:10.274Z,29.50
2019-03-28T16:37:39.171Z,29.60
2019-03-28T16:40:08.295Z,29.60
2019-03-28T16:42:37.148Z,29.60
2019-03-28T16:45:07.932Z,29.60
2019-03-28T16:47:36.783Z,29.70
2019-03-28T16:50:06.433Z,29.90
2019-03-28T16:52:35.346Z,30.00
2019-03-28T16:55:05.070Z,30.10
2019-03-28T16:57:33.916Z,30.10
2019-03-28T17:00:03.012Z,30.00
2019-03-28T17:02:31.837Z,30.20
2019-03-28T17:05:00.780Z,30.30
2019-03-28T17:07:29.863Z,30.40
2019-03-28T17:09:58.816Z,30.40
2019-03-28T17:12:27.677Z,30.30
2019-03-28T17:14:56.604Z,30.50
2019-03-28T17:17:25.458Z,30.50
2019-03-28T17:19:54.293Z,30.80
2019-03-28T17:22:23.166Z,30.50
2019-03-28T17:24:51.998Z,30.70
2019-03-28T17:27:20.852Z,30.70
2019-03-28T17:29:51.362Z,30.80
2019-03-28T17:32:20.185Z,30.80
2019-03-28T17:34:49.035Z,30.90
2019-03-28T17:37:18.051Z,31.20
2019-03-28T17:39:46.880Z,31.40
2019-03-28T17:42:16.012Z,31.50
2019-03-28T17:44:44.880Z,31.50
2019-03-28T17:47:13.732Z,31.50
2019-03-28T17:49:42.586Z,31.70
2019-03-28T17:52:11.474Z,31.90
2019-03-28T17:54:40.313Z,31.90
2019-03-28T17:57:09.148Z,33.60
2019-03-28T17:59:38.065Z,33.70
2019-03-28T18:02:06.916Z,35.10
2019-03-28T18:04:47.379Z,35.90
2019-03-28T18:07:06.319Z,36.60
2019-03-28T18:09:35.202Z,36.50
2019-03-28T18:12:04.145Z,36.60
2019-03-28T18:14:33.036Z,36.50
2019-03-28T18:17:01.898Z,36.70
2019-03-28T18:19:30.766Z,38.50
2019-03-28T18:22:03.713Z,39.00
2019-03-28T18:24:30.591Z,39.40
2019-03-28T18:26:59.716Z,38.80
2019-03-28T18:29:28.593Z,38.10
2019-03-28T18:31:57.769Z,38.00
2019-03-28T18:34:26.627Z,38.50
2019-03-28T18:36:55.531Z,39.00
2019-03-28T18:39:24.374Z,39.70
2019-03-28T18:41:56.373Z,40.00
2019-03-28T18:44:23.777Z,40.70
2019-03-28T18:46:52.629Z,41.30
2019-03-28T18:49:21.470Z,41.50
2019-03-28T18:51:50.356Z,42.20
2019-03-28T18:54:20.287Z,41.60
2019-03-28T18:56:49.326Z,42.00
2019-03-28T18:59:18.214Z,42.40
2019-03-28T19:01:47.063Z,42.60
2019-03-28T19:04:15.902Z,42.80
2019-03-28T19:06:45.022Z,43.00
2019-03-28T19:09:13.880Z,43.20
2019-03-28T19:11:42.723Z,43.50
2019-03-28T19:14:11.629Z,43.70
2019-03-28T19:16:40.623Z,44.00
2019-03-28T19:19:10.817Z,44.50
2019-03-28T19:21:39.733Z,45.10
2019-03-28T19:24:08.578Z,44.60
2019-03-28T19:26:37.434Z,44.90
2019-03-28T19:29:06.417Z,44.90
2019-03-28T19:31:35.276Z,45.40
2019-03-28T19:34:05.119Z,45.80
2019-03-28T19:36:34.145Z,46.00
2019-03-28T19:39:03.701Z,46.10
2019-03-28T19:41:32.534Z,46.90
2019-03-28T19:44:01.839Z,46.70
2019-03-28T19:46:30.789Z,46.80
2019-03-28T19:48:59.642Z,47.40
2019-03-28T19:51:28.661Z,48.00
2019-03-28T19:53:57.514Z,48.40
2019-03-28T19:56:26.367Z,48.60
2019-03-28T19:58:57.351Z,48.70
2019-03-28T20:01:25.766Z,49.00
2019-03-28T20:03:55.181Z,49.30
2019-03-28T20:06:24.640Z,49.80
2019-03-28T20:08:53.642Z,50.00
2019-03-28T20:11:22.618Z,50.50
2019-03-28T20:13:51.717Z,50.90
2019-03-28T20:16:20.562Z,51.20
2019-03-28T20:18:49.427Z,51.80
2019-03-28T20:21:18.325Z,52.30
2019-03-28T20:23:47.174Z,52.50
2019-03-28T20:26:16.025Z,52.90
2019-03-28T20:28:44.936Z,53.20
2019-03-28T20:31:13.795Z,53.50
2019-03-28T20:33:42.644Z,53.90
2019-03-28T20:36:36.118Z,54.60
2019-03-28T20:38:44.687Z,55.00
2019-03-28T20:41:13.556Z,55.20
2019-03-28T20:43:42.446Z,56.00
2019-03-28T20:46:11.279Z,56.50
2019-03-28T20:48:40.327Z,56.90
2019-03-28T20:51:09.350Z,57.00
2019-03-28T20:53:38.241Z,57.40
2019-03-28T20:56:07.166Z,57.70
2019-03-28T20:58:37.550Z,58.20
2019-03-28T21:01:06.642Z,58.40
2019-03-28T21:03:35.487Z,58.80
2019-03-28T21:06:15.242Z,59.10
2019-03-28T21:08:42.438Z,59.80
2019-03-28T21:11:15.014Z,59.80
2019-03-28T21:13:43.850Z,60.10
2019-03-28T21:16:12.713Z,61.70
2019-03-28T21:18:41.741Z,61.70
2019-03-28T21:21:10.573Z,61.20
2019-03-28T21:23:39.431Z,61.10
2019-03-28T21:26:08.334Z,61.30
2019-03-28T21:28:46.977Z,62.20
2019-03-28T21:31:07.685Z,62.60
2019-03-28T21:33:36.580Z,63.50
2019-03-28T21:36:05.432Z,63.90
2019-03-28T21:38:34.306Z,64.00
2019-03-28T21:41:03.305Z,64.40
2019-03-28T21:43:32.189Z,65.10
2019-03-28T21:46:03.758Z,65.50
2019-03-28T21:48:34.707Z,65.90
2019-03-28T21:51:03.543Z,65.80
2019-03-28T21:53:33.160Z,66.00
2019-03-28T21:56:02.582Z,65.50
2019-03-28T21:58:31.429Z,65.70
2019-03-28T22:01:00.271Z,66.10
2019-03-28T22:03:29.196Z,66.60
2019-03-28T22:05:58.034Z,67.00
2019-03-28T22:08:26.884Z,67.40
2019-03-28T22:10:55.776Z,67.90
2019-03-28T22:13:24.606Z,67.60
2019-03-28T22:15:53.493Z,67.30
2019-03-28T22:18:22.445Z,67.60
2019-03-28T22:20:51.284Z,67.00
2019-03-28T22:23:20.227Z,66.90
2019-03-28T22:25:49.868Z,67.40
2019-03-28T22:28:18.717Z,67.80
2019-03-28T22:30:47.546Z,68.50
2019-03-28T22:33:16.462Z,68.50
2019-03-28T22:35:45.294Z,68.60
2019-03-28T22:38:14.145Z,68.60
2019-03-28T22:40:43.967Z,69.10
2019-03-28T22:43:12.997Z,69.50
2019-03-28T22:45:41.856Z,69.60
2019-03-28T22:48:12.354Z,69.30
2019-03-28T22:50:41.264Z,69.70
2019-03-28T22:53:10.120Z,70.10
2019-03-28T22:55:39.011Z,70.10
2019-03-28T22:58:08.205Z,70.70
2019-03-28T23:00:47.758Z,71.20
2019-03-28T23:03:17.496Z,71.00
2019-03-28T23:05:46.458Z,71.10
2019-03-28T23:08:15.387Z,71.30
2019-03-28T23:10:44.328Z,71.40
2019-03-28T23:13:13.177Z,71.50
2019-03-28T23:15:42.077Z,71.70
2019-03-28T23:18:13.486Z,71.40
2019-03-28T23:20:42.431Z,71.30
2019-03-28T23:23:11.329Z,71.30
2019-03-28T23:25:40.175Z,71.60
2019-03-28T23:28:09.014Z,71.80
2019-03-28T23:30:38.024Z,72.00
2019-03-28T23:33:06.870Z,72.20
2019-03-28T23:35:35.704Z,72.40
2019-03-28T23:38:04.612Z,72.40
2019-03-28T23:40:33.472Z,72.70
2019-03-28T23:43:02.310Z,72.80
2019-03-28T23:45:31.188Z,73.10
2019-03-28T23:48:00.052Z,73.30
2019-03-28T23:50:28.931Z,73.50
2019-03-28T23:52:57.873Z,73.70
2019-03-28T23:55:26.734Z,73.90
2019-03-28T23:57:55.585Z,73.70
